AirNav   Air Wisconsin Up To $57,000 Bonus
 
 1470 users online  

35WA Fisher Ranch Airport
Washtucna, Washington, USA

GOING TO WASHTUCNA?


FAA INFORMATION EFFECTIVE 02 DECEMBER 2021

Location

FAA Identifier: 35WA
Lat/Long: 46-44-59.5200N 118-25-03.9280W
46-44.992000N 118-25.065467W
46.7498667,-118.4177578
(estimated)
Elevation: 1521 ft. / 463.6 m (surveyed)
Variation: 19E (1985)
From city: 4 miles W of WASHTUCNA, WA
Time zone: UTC -8 (UTC -7 during Daylight Saving Time)
Zip code: 99371

Airport Operations

Airport use: Private use. Permission required prior to landing
Activation date: 03/1958
Control tower: no
ARTCC: SEATTLE CENTER
FSS: SEATTLE FLIGHT SERVICE STATION
Attendance: UNATNDD
Wind indicator: yes
Segmented circle: no

Airport Services

Airframe service: NONE
Powerplant service: NONE

Runway Information

Runway 6/24

Dimensions: 1800 x 100 ft. / 549 x 30 m
Surface: turf/dirt
RUNWAY 6  RUNWAY 24
Traffic pattern: leftleft
Obstructions: fence roadfence

Airport Ownership and Management from official FAA records

Ownership: Privately-owned
Owner: DAVID L FISHER
1139 S. SUKO RD
WASHTUCNA, WA 99371
Phone 509-660-0642
Manager: DAVID L FISHER
1139 S. SUKO RD
WASHTUCNA, WA 99371-9739
Phone 509-660-0642

Airport Operational Statistics

Aircraft based on the field: 1
Single engine airplanes: 1
    

Additional Remarks

FOR CD CTC SEATTLE ARTCC AT 253-351-3694.

Instrument Procedures

There are no published instrument procedures at 35WA.

Some nearby airports with instrument procedures:

KALW - Walla Walla Regional Airport (40 nm S)
KPSC - Tri-Cities Airport (41 nm SW)
KRLD - Richland Airport (45 nm SW)
KMWH - Grant County International Airport (46 nm NW)
KPUW - Pullman/Moscow Regional Airport (54 nm E)
 
Loc | Ops | Rwys | IFR | FBO | Links
Com | Nav | Svcs | Stats | Notes
Area around 35WA (Fisher Ranch Airport)
 
Road maps at: MapQuest Bing Google
 
Aerial photo
No photo
 
Sectional chart

 
Airport distance calculator
Flying to Fisher Ranch Airport? Find the distance to fly.

From to 35WA

Sunrise and sunset
Times for 06-Dec-2021
 Local
(UTC-8)
 Zulu
(UTC)
Morning civil twilight06:5014:50
Sunrise07:2515:25
Sunset16:0500:05
Evening civil twilight16:4000:40

Current date and time
Zulu (UTC)  06-Dec-2021 17:14:13
Local (UTC-8)  06-Dec-2021 09:14:13
 
METAR
KALW 
39nm S 
061653Z 00000KT 10SM OVC040 03/01 A3005 RMK AO2 RAE24 SLP186 P0000 T00330006
KPSC 
41nm SW 
061653Z 00000KT 10SM BKN080 OVC095 03/M01 A3009 RMK AO2 SLP192 T00281006
KRLD 
45nm SW 
061655Z AUTO 00000KT 10SM SCT075 OVC085 03/00 A3010 RMK AO2 T00331002
KMWH 
46nm NW 
061652Z 00000KT 8SM -SN SCT019 OVC050 00/M04 A3007 RMK AO2 SNB47 SLP197 P0000 T00001044
TAF
KALW 
39nm S 
061120Z 0612/0712 21005KT P6SM SCT060 OVC080 TEMPO 0616/0620 5SM -SN OVC030 FM062000 19006KT 4SM -RA BR BKN015 OVC025 FM070000 VRB03KT 2SM BR BKN012 OVC020 FM070900 23004KT 3SM BR BKN007 OVC015
KPSC 
41nm SW 
061120Z 0612/0712 VRB03KT P6SM SCT100 OVC150 FM061800 30004KT P6SM OVC050 FM062300 32005KT P6SM OVC035 FM070800 VRB03KT 2SM BR BKN015 OVC025
KMWH 
46nm NW 
061120Z 0612/0712 04003KT P6SM OVC060 FM061700 10004KT P6SM BKN040 FM062000 08005KT P6SM BKN030 FM070000 01006KT P6SM OVC025 FM071000 35004KT 5SM BR OVC015
NOTAMs
Click for the latest NOTAMs
NOTAMs are issued by the DoD/FAA and will open in a separate window not controlled by AirNav.

 

 
 

Would you like to see your business listed on this page?

 If your business provides an interesting product or service to pilots, flight crews, aircraft, or users of the Fisher Ranch Airport, you should consider listing it here.  To start the listing process, click on the button below
 
Add a business
 

Other Pages about Fisher Ranch Airport

Update a link
 
Copyright © AirNav, LLC. All rights reserved. Privacy Policy  Contact